Time;durP1;ratioP1;P1;durP2;ratioP2;P2;SDS_P1;SDS_P2;PMS_P1;PMS_P2;Temp;Humidity;BMP_temperature;BMP_pressure;BME280_temperature;BME280_humidity;BME280_pressure;Samples;Min_cycle;Max_cycle;Signal;HPM_P1;HPM_P2
2022/12/25 00:00:27;;;;;;;14.95;2.95;;;;;;;;;;5031066;28;20029;-65
2022/12/25 00:02:53;;;;;;;7.63;2.70;;;;;;;;;;5034752;28;20025;-64
2022/12/25 00:05:19;;;;;;;12.82;3.10;;;;;;;;;;5034906;28;20017;-64
2022/12/25 00:07:45;;;;;;;15.57;4.20;;;;;;;;;;5034772;28;20671;-64
2022/12/25 00:10:11;;;;;;;18.20;6.50;;;;;;;;;;5032328;28;20022;-64
2022/12/25 00:12:37;;;;;;;15.55;6.22;;;;;;;;;;5034208;28;20017;-65
2022/12/25 00:15:04;;;;;;;17.17;6.18;;;;;;;;;;5034684;28;20041;-64
2022/12/25 00:17:30;;;;;;;15.30;5.43;;;;;;;;;;5034797;28;20389;-64
2022/12/25 00:19:56;;;;;;;16.00;5.15;;;;;;;;;;5034595;28;20025;-64
2022/12/25 00:22:22;;;;;;;12.32;3.55;;;;;;;;;;5033474;28;20032;-64
2022/12/25 00:24:48;;;;;;;17.95;2.97;;;;;;;;;;5034434;28;20029;-64
2022/12/25 00:27:15;;;;;;;12.45;3.13;;;;;;;;;;5034082;28;20014;-64
2022/12/25 00:29:41;;;;;;;11.68;3.47;;;;;;;;;;5033103;28;20080;-64
2022/12/25 00:32:07;;;;;;;18.13;4.22;;;;;;;;;;5034213;28;20474;-64
2022/12/25 00:34:33;;;;;;;8.77;3.10;;;;;;;;;;5034348;28;20041;-64
2022/12/25 00:36:59;;;;;;;11.40;3.50;;;;;;;;;;5032798;28;20043;-64
2022/12/25 00:39:26;;;;;;;17.60;3.60;;;;;;;;;;5034341;28;20517;-64
2022/12/25 00:44:37;;;;;;;13.57;3.17;;;;;;;;;;5032377;28;20024;-64
2022/12/25 00:47:03;;;;;;;9.32;2.78;;;;;;;;;;5033976;28;20030;-65
2022/12/25 00:49:29;;;;;;;15.70;3.03;;;;;;;;;;5034163;28;20025;-64
2022/12/25 00:51:55;;;;;;;12.63;2.65;;;;;;;;;;5033574;28;20037;-64
2022/12/25 00:54:21;;;;;;;14.90;2.95;;;;;;;;;;5033813;28;20033;-64
2022/12/25 00:56:47;;;;;;;13.80;2.80;;;;;;;;;;5033675;28;20029;-64
2022/12/25 00:59:14;;;;;;;17.10;2.85;;;;;;;;;;5033910;28;20037;-64
2022/12/25 01:01:40;;;;;;;6.75;2.30;;;;;;;;;;5033835;28;20389;-64
2022/12/25 01:04:07;;;;;;;13.68;2.85;;;;;;;;;;5033703;28;20516;-64
2022/12/25 01:06:33;;;;;;;8.90;2.40;;;;;;;;;;5033724;28;20021;-64
2022/12/25 01:11:45;;;;;;;16.60;2.95;;;;;;;;;;5032691;28;20450;-65
2022/12/25 01:14:11;;;;;;;11.65;2.70;;;;;;;;;;5029982;28;20021;-64
2022/12/25 01:16:37;;;;;;;8.32;2.72;;;;;;;;;;5033409;28;20050;-64
2022/12/25 01:19:03;;;;;;;11.35;2.30;;;;;;;;;;5033364;28;20022;-65
2022/12/25 01:21:30;;;;;;;12.07;2.50;;;;;;;;;;5033455;28;20018;-64
2022/12/25 01:23:56;;;;;;;7.65;2.45;;;;;;;;;;5032844;28;20025;-64
2022/12/25 01:26:24;;;;;;;10.15;2.67;;;;;;;;;;5033425;28;20119;-65
2022/12/25 01:28:50;;;;;;;9.27;2.33;;;;;;;;;;5033085;28;20075;-64
2022/12/25 01:31:17;;;;;;;11.05;2.35;;;;;;;;;;5033239;28;20029;-64
2022/12/25 01:33:44;;;;;;;13.95;2.95;;;;;;;;;;5032922;28;20424;-64
2022/12/25 01:36:15;;;;;;;12.20;2.10;;;;;;;;;;5033099;28;20044;-64
2022/12/25 01:38:42;;;;;;;9.32;2.00;;;;;;;;;;5032909;28;20075;-64
2022/12/25 01:41:08;;;;;;;10.88;2.60;;;;;;;;;;5032076;28;20068;-65
2022/12/25 01:43:34;;;;;;;13.07;3.15;;;;;;;;;;5033135;28;20048;-64
2022/12/25 01:46:02;;;;;;;7.22;2.35;;;;;;;;;;5032728;28;20021;-64
2022/12/25 01:48:36;;;;;;;10.20;2.92;;;;;;;;;;5032864;28;20033;-64
2022/12/25 01:51:20;;;;;;;8.95;2.30;;;;;;;;;;5032675;28;20493;-64
2022/12/25 01:53:46;;;;;;;12.73;2.20;;;;;;;;;;5031801;28;20029;-64
2022/12/25 01:56:12;;;;;;;16.38;2.85;;;;;;;;;;5032850;28;20017;-64
2022/12/25 01:58:38;;;;;;;10.68;2.60;;;;;;;;;;5033000;28;20068;-64
2022/12/25 02:01:05;;;;;;;9.57;2.05;;;;;;;;;;5032534;28;20049;-64
2022/12/25 02:03:31;;;;;;;23.30;2.47;;;;;;;;;;5030133;28;20101;-64
2022/12/25 02:05:58;;;;;;;15.77;2.05;;;;;;;;;;5032620;28;20029;-64
2022/12/25 02:08:25;;;;;;;11.57;2.38;;;;;;;;;;5032083;28;20478;-64
2022/12/25 02:10:51;;;;;;;13.75;2.28;;;;;;;;;;5032484;28;20584;-64
2022/12/25 02:13:18;;;;;;;12.48;2.05;;;;;;;;;;5032478;28;20017;-64
2022/12/25 02:16:03;;;;;;;8.35;1.67;;;;;;;;;;5032765;28;20535;-64
2022/12/25 02:18:38;;;;;;;7.50;1.80;;;;;;;;;;5032063;28;20033;-64
2022/12/25 02:21:22;;;;;;;13.73;2.60;;;;;;;;;;5032342;28;20531;-64
2022/12/25 02:24:07;;;;;;;13.40;2.30;;;;;;;;;;5031593;28;20029;-64
2022/12/25 02:26:52;;;;;;;11.18;1.90;;;;;;;;;;5030370;28;20454;-64
2022/12/25 02:29:41;;;;;;;10.48;2.15;;;;;;;;;;5030538;28;20496;-64
2022/12/25 02:32:13;;;;;;;10.15;1.90;;;;;;;;;;5031572;28;20029;-64
2022/12/25 02:34:55;;;;;;;15.57;2.47;;;;;;;;;;5031795;28;20128;-64
2022/12/25 02:37:24;;;;;;;7.20;1.48;;;;;;;;;;5030396;28;20032;-64
2022/12/25 02:39:59;;;;;;;10.95;2.45;;;;;;;;;;5037939;28;20017;-64
2022/12/25 03:06:41;;;;;;;9.98;2.83;;;;;;;;;;5040110;28;20025;-64
2022/12/25 03:07:21;;;;;;;12.70;2.95;;;;;;;;;;5039353;28;20033;-64
2022/12/25 03:12:44;;;;;;;7.57;1.65;;;;;;;;;;5036731;28;20037;-64
2022/12/25 03:17:58;;;;;;;14.57;2.67;;;;;;;;;;5038974;28;20033;-64
2022/12/25 03:28:41;;;;;;;8.60;1.55;;;;;;;;;;5031143;28;20032;-64
2022/12/25 03:31:26;;;;;;;8.13;1.80;;;;;;;;;;5012231;28;20026;-64
2022/12/25 03:36:40;;;;;;;7.25;1.48;;;;;;;;;;5026095;28;20112;-64
2022/12/25 04:37:50;;;;;;;13.40;1.95;;;;;;;;;;5034230;28;20549;-65
2022/12/25 04:40:18;;;;;;;7.05;1.52;;;;;;;;;;5034634;28;20030;-65
2022/12/25 04:42:44;;;;;;;6.38;1.23;;;;;;;;;;5034852;28;20029;-65
2022/12/25 04:45:10;;;;;;;12.77;1.70;;;;;;;;;;5034079;28;20504;-64
2022/12/25 04:47:36;;;;;;;5.32;1.10;;;;;;;;;;5026783;28;20026;-64
2022/12/25 04:50:03;;;;;;;8.60;1.95;;;;;;;;;;5015467;28;20152;-65
2022/12/25 04:52:29;;;;;;;7.55;1.50;;;;;;;;;;5014659;28;20116;-65
2022/12/25 04:54:55;;;;;;;11.95;1.73;;;;;;;;;;5015069;28;20030;-65
2022/12/25 04:57:21;;;;;;;4.60;1.30;;;;;;;;;;5014594;28;20049;-65
2022/12/25 04:59:47;;;;;;;12.20;1.52;;;;;;;;;;5014698;28;20390;-64
2022/12/25 05:02:14;;;;;;;2.75;1.10;;;;;;;;;;5014438;28;20095;-65
2022/12/25 05:04:40;;;;;;;4.40;1.20;;;;;;;;;;5014715;28;20076;-64
2022/12/25 05:07:06;;;;;;;9.15;1.58;;;;;;;;;;5014678;28;20084;-65
2022/12/25 05:09:32;;;;;;;4.20;1.20;;;;;;;;;;5014544;28;20062;-65
2022/12/25 05:11:58;;;;;;;6.53;1.63;;;;;;;;;;5022937;28;20037;-65
2022/12/25 05:14:24;;;;;;;6.28;1.50;;;;;;;;;;5034236;28;20079;-65
2022/12/25 05:16:50;;;;;;;6.78;1.25;;;;;;;;;;5034001;28;20548;-64
2022/12/25 05:19:16;;;;;;;11.65;1.92;;;;;;;;;;5034035;28;20041;-65
2022/12/25 05:21:42;;;;;;;8.32;1.95;;;;;;;;;;5034258;28;20425;-64
2022/12/25 05:24:08;;;;;;;4.65;2.00;;;;;;;;;;5034230;28;20164;-64
2022/12/25 05:26:35;;;;;;;14.40;1.83;;;;;;;;;;5033984;28;20045;-65
2022/12/25 05:29:01;;;;;;;10.57;1.98;;;;;;;;;;5033290;28;20021;-64
2022/12/25 05:31:27;;;;;;;8.20;1.75;;;;;;;;;;5032696;28;20401;-64
2022/12/25 05:33:53;;;;;;;7.35;1.70;;;;;;;;;;5033163;28;20053;-64
2022/12/25 05:36:19;;;;;;;8.43;1.90;;;;;;;;;;5033881;28;20374;-65
2022/12/25 05:38:45;;;;;;;5.45;1.88;;;;;;;;;;5033918;28;20394;-65
2022/12/25 05:41:11;;;;;;;8.90;1.70;;;;;;;;;;5022713;28;20026;-65
2022/12/25 05:43:38;;;;;;;12.80;3.75;;;;;;;;;;5021975;28;20536;-65
2022/12/25 05:46:05;;;;;;;4.20;1.00;;;;;;;;;;5032886;28;20091;-65
2022/12/25 05:48:31;;;;;;;8.68;1.20;;;;;;;;;;5033413;28;20401;-65
2022/12/25 05:50:58;;;;;;;4.97;1.08;;;;;;;;;;5033511;28;20075;-65
2022/12/25 05:53:24;;;;;;;5.75;1.17;;;;;;;;;;5033366;28;20025;-65
2022/12/25 05:55:50;;;;;;;2.67;0.88;;;;;;;;;;5033315;28;20025;-65
2022/12/25 05:58:16;;;;;;;6.82;1.02;;;;;;;;;;5033362;28;20086;-65
2022/12/25 06:00:43;;;;;;;2.75;1.15;;;;;;;;;;5023777;28;20021;-65
2022/12/25 06:03:09;;;;;;;4.50;1.00;;;;;;;;;;5033408;28;20033;-65
2022/12/25 06:05:37;;;;;;;4.90;0.95;;;;;;;;;;5032957;28;20032;-65
2022/12/25 06:08:03;;;;;;;4.18;0.90;;;;;;;;;;5033297;28;20397;-65
2022/12/25 06:10:29;;;;;;;4.03;0.90;;;;;;;;;;5033045;28;20494;-65
2022/12/25 06:12:55;;;;;;;3.72;0.90;;;;;;;;;;5032994;28;20024;-65
2022/12/25 06:15:21;;;;;;;5.07;0.93;;;;;;;;;;5032702;28;20385;-65
2022/12/25 06:17:48;;;;;;;2.60;0.98;;;;;;;;;;5032861;28;20040;-65
2022/12/25 06:20:14;;;;;;;4.05;0.60;;;;;;;;;;5033173;28;20033;-65
2022/12/25 06:22:40;;;;;;;7.40;0.75;;;;;;;;;;5032941;28;20017;-65
2022/12/25 06:25:07;;;;;;;1.42;0.60;;;;;;;;;;5032374;28;20025;-65
2022/12/25 06:27:33;;;;;;;3.33;0.90;;;;;;;;;;5032605;28;20056;-65
2022/12/25 06:29:59;;;;;;;5.20;1.02;;;;;;;;;;5032177;28;20064;-65
2022/12/25 06:32:25;;;;;;;4.55;1.08;;;;;;;;;;5032647;28;20485;-65
2022/12/25 06:34:51;;;;;;;4.10;0.80;;;;;;;;;;5032412;28;20049;-65
2022/12/25 06:37:17;;;;;;;2.67;1.10;;;;;;;;;;5032437;28;20029;-65
2022/12/25 06:39:46;;;;;;;3.35;0.80;;;;;;;;;;5032712;28;20497;-65
2022/12/25 06:42:12;;;;;;;4.18;1.17;;;;;;;;;;5032558;28;20040;-65
2022/12/25 06:44:38;;;;;;;2.65;1.25;;;;;;;;;;5032227;28;20029;-65
2022/12/25 06:47:04;;;;;;;3.45;1.30;;;;;;;;;;5032110;28;20080;-65
2022/12/25 06:49:31;;;;;;;4.10;0.95;;;;;;;;;;5032459;28;20051;-65
2022/12/25 06:51:57;;;;;;;4.25;1.08;;;;;;;;;;5032592;28;20025;-65
2022/12/25 06:54:23;;;;;;;4.88;1.10;;;;;;;;;;5032574;28;20041;-65
2022/12/25 06:56:49;;;;;;;9.07;1.42;;;;;;;;;;5032257;28;20545;-65
2022/12/25 06:59:16;;;;;;;7.70;1.50;;;;;;;;;;5030547;28;20026;-65
2022/12/25 07:01:47;;;;;;;3.33;1.00;;;;;;;;;;5032312;28;20025;-65
2022/12/25 07:04:37;;;;;;;5.72;1.20;;;;;;;;;;5036328;28;20043;-65
2022/12/25 07:07:03;;;;;;;9.07;1.20;;;;;;;;;;5041546;28;20037;-65
2022/12/25 07:09:29;;;;;;;4.03;0.90;;;;;;;;;;5039154;28;20092;-65
2022/12/25 07:12:02;;;;;;;2.17;1.00;;;;;;;;;;5038996;28;20116;-65
2022/12/25 07:14:29;;;;;;;5.55;1.25;;;;;;;;;;5037188;28;20021;-65
2022/12/25 07:16:55;;;;;;;4.60;1.17;;;;;;;;;;5040942;28;20079;-65
2022/12/25 07:19:21;;;;;;;3.92;1.20;;;;;;;;;;5041952;28;20151;-65
2022/12/25 07:21:47;;;;;;;4.40;1.25;;;;;;;;;;5040037;28;20038;-65
2022/12/25 07:24:20;;;;;;;2.28;1.00;;;;;;;;;;5039371;28;20083;-65
2022/12/25 07:26:46;;;;;;;2.58;0.80;;;;;;;;;;5038709;28;20033;-65
2022/12/25 07:29:12;;;;;;;6.20;1.20;;;;;;;;;;5041336;28;20044;-65
2022/12/25 07:31:38;;;;;;;2.78;1.00;;;;;;;;;;5033661;28;20056;-65
2022/12/25 07:34:04;;;;;;;4.45;1.30;;;;;;;;;;5036454;28;20048;-65
2022/12/25 07:36:31;;;;;;;2.72;0.90;;;;;;;;;;5038242;28;20040;-65
2022/12/25 07:38:57;;;;;;;5.03;1.20;;;;;;;;;;5031787;28;20366;-65
2022/12/25 07:41:23;;;;;;;4.45;0.82;;;;;;;;;;5030844;28;20031;-65
2022/12/25 07:43:52;;;;;;;4.18;0.88;;;;;;;;;;5030911;28;20033;-64
2022/12/25 07:46:19;;;;;;;1.38;0.80;;;;;;;;;;5040067;28;20437;-64
2022/12/25 07:48:45;;;;;;;3.95;0.77;;;;;;;;;;5025672;28;20029;-65
2022/12/25 07:51:12;;;;;;;1.50;0.68;;;;;;;;;;5031144;28;20021;-65
2022/12/25 07:53:40;;;;;;;2.20;0.90;;;;;;;;;;5029548;28;20040;-65
2022/12/25 07:56:07;;;;;;;2.70;0.90;;;;;;;;;;5024779;28;20037;-64
2022/12/25 07:58:34;;;;;;;1.38;0.70;;;;;;;;;;5030448;28;20025;-64
2022/12/25 08:01:07;;;;;;;3.90;0.80;;;;;;;;;;5030212;28;20048;-64
2022/12/25 08:03:34;;;;;;;4.82;1.00;;;;;;;;;;5030729;28;20030;-64
2022/12/25 08:06:04;;;;;;;3.25;0.90;;;;;;;;;;5030430;28;20463;-64
2022/12/25 08:08:31;;;;;;;2.83;0.93;;;;;;;;;;5034929;28;20113;-64
2022/12/25 08:10:57;;;;;;;5.55;1.08;;;;;;;;;;5037058;28;20444;-64
2022/12/25 08:13:23;;;;;;;2.25;0.90;;;;;;;;;;5024992;28;20029;-64
2022/12/25 08:15:49;;;;;;;1.85;1.02;;;;;;;;;;5027833;28;20057;-64
2022/12/25 08:18:15;;;;;;;4.18;1.30;;;;;;;;;;5024902;28;20033;-65
2022/12/25 08:20:41;;;;;;;4.47;1.10;;;;;;;;;;5029792;28;20163;-64
2022/12/25 08:23:07;;;;;;;6.82;1.33;;;;;;;;;;5033219;28;20063;-64
2022/12/25 08:25:34;;;;;;;5.57;1.40;;;;;;;;;;5033715;28;20059;-64
2022/12/25 08:28:00;;;;;;;4.88;1.20;;;;;;;;;;5033712;28;20046;-64
2022/12/25 08:30:27;;;;;;;2.80;1.27;;;;;;;;;;5033093;28;20504;-64
2022/12/25 08:32:53;;;;;;;3.28;1.20;;;;;;;;;;5025609;28;20040;-64
2022/12/25 08:35:19;;;;;;;3.58;1.48;;;;;;;;;;5030100;28;20049;-64
2022/12/25 08:37:45;;;;;;;4.82;1.10;;;;;;;;;;5025786;28;20026;-64
2022/12/25 08:40:11;;;;;;;3.17;1.30;;;;;;;;;;5037610;28;20021;-64
2022/12/25 08:42:38;;;;;;;3.47;1.10;;;;;;;;;;5029247;28;20014;-64
2022/12/25 08:45:04;;;;;;;4.75;1.80;;;;;;;;;;5029372;28;20057;-64
2022/12/25 08:47:30;;;;;;;3.83;1.40;;;;;;;;;;5027932;28;20060;-64
2022/12/25 08:49:56;;;;;;;2.33;1.30;;;;;;;;;;5033209;28;20048;-69
2022/12/25 08:52:22;;;;;;;7.05;1.42;;;;;;;;;;5031575;28;20017;-64
2022/12/25 08:54:48;;;;;;;2.60;1.40;;;;;;;;;;5033362;28;20083;-64
2022/12/25 08:57:14;;;;;;;4.70;1.73;;;;;;;;;;5031821;28;20029;-64
2022/12/25 08:59:40;;;;;;;5.57;1.70;;;;;;;;;;5031887;28;20025;-64
2022/12/25 09:02:06;;;;;;;5.07;1.70;;;;;;;;;;5029688;28;20025;-64
2022/12/25 09:04:33;;;;;;;6.85;1.50;;;;;;;;;;5029661;28;20036;-64
2022/12/25 09:06:59;;;;;;;6.97;2.22;;;;;;;;;;5032272;28;20033;-64
2022/12/25 09:09:26;;;;;;;4.65;1.80;;;;;;;;;;5029299;28;20022;-64
2022/12/25 09:11:52;;;;;;;4.63;2.33;;;;;;;;;;5033259;28;20044;-64
2022/12/25 09:14:18;;;;;;;4.68;2.25;;;;;;;;;;5033085;28;20057;-65
2022/12/25 09:16:44;;;;;;;8.57;3.42;;;;;;;;;;5036655;28;20108;-64
2022/12/25 09:19:11;;;;;;;10.88;3.90;;;;;;;;;;5032978;28;20030;-65
2022/12/25 09:21:37;;;;;;;5.47;3.00;;;;;;;;;;5030848;28;20025;-64
2022/12/25 09:24:03;;;;;;;4.72;2.40;;;;;;;;;;5032372;28;20125;-66
2022/12/25 09:26:30;;;;;;;3.95;2.15;;;;;;;;;;5032690;28;20083;-65
2022/12/25 09:28:56;;;;;;;7.88;2.20;;;;;;;;;;5032083;28;20032;-65
2022/12/25 09:31:22;;;;;;;4.18;1.95;;;;;;;;;;5034225;28;20047;-65
2022/12/25 09:33:49;;;;;;;6.90;1.48;;;;;;;;;;5030325;28;20533;-66
2022/12/25 09:36:15;;;;;;;2.35;1.55;;;;;;;;;;5029862;28;20080;-66
2022/12/25 09:38:41;;;;;;;2.60;1.40;;;;;;;;;;5032581;28;20084;-66
2022/12/25 09:41:08;;;;;;;2.95;1.25;;;;;;;;;;5030434;28;20026;-66
2022/12/25 09:43:38;;;;;;;5.05;1.85;;;;;;;;;;5032516;28;20025;-66
2022/12/25 09:46:05;;;;;;;6.55;1.30;;;;;;;;;;5029621;28;20033;-66
2022/12/25 09:48:32;;;;;;;4.15;1.10;;;;;;;;;;5032494;28;20072;-66
2022/12/25 09:51:12;;;;;;;7.18;3.20;;;;;;;;;;5032562;28;20029;-66
2022/12/25 09:53:40;;;;;;;7.47;3.00;;;;;;;;;;5032592;28;20116;-66
2022/12/25 09:56:06;;;;;;;5.43;2.50;;;;;;;;;;5029858;28;20041;-66
2022/12/25 09:58:33;;;;;;;7.30;1.30;;;;;;;;;;5028375;28;20061;-66
2022/12/25 10:01:03;;;;;;;13.52;8.25;;;;;;;;;;5032317;28;20017;-66
2022/12/25 10:03:35;;;;;;;4.03;2.22;;;;;;;;;;5029693;28;20033;-66
2022/12/25 10:06:02;;;;;;;2.72;2.47;;;;;;;;;;5026859;28;20041;-66
2022/12/25 10:08:45;;;;;;;7.85;2.30;;;;;;;;;;5031537;28;20175;-66
2022/12/25 10:11:23;;;;;;;7.68;1.88;;;;;;;;;;5037568;28;20033;-66
2022/12/25 10:13:53;;;;;;;4.50;1.70;;;;;;;;;;5029165;28;20486;-66
2022/12/25 10:16:19;;;;;;;4.43;1.38;;;;;;;;;;5031811;28;20022;-66
2022/12/25 10:18:53;;;;;;;5.13;2.33;;;;;;;;;;5031227;28;20485;-66
2022/12/25 10:21:19;;;;;;;3.95;2.20;;;;;;;;;;5029399;28;20029;-66
2022/12/25 10:23:47;;;;;;;7.82;4.53;;;;;;;;;;5032493;28;20032;-68
2022/12/25 10:26:18;;;;;;;3.97;2.70;;;;;;;;;;5028208;28;20034;-67
2022/12/25 10:28:46;;;;;;;5.25;2.08;;;;;;;;;;5030810;28;20037;-67
2022/12/25 10:31:20;;;;;;;5.13;2.08;;;;;;;;;;5030623;28;20037;-67
2022/12/25 10:33:48;;;;;;;4.47;2.10;;;;;;;;;;5030882;28;20057;-66
2022/12/25 10:36:15;;;;;;;5.15;1.58;;;;;;;;;;5030415;28;20025;-66
2022/12/25 10:38:41;;;;;;;5.40;1.70;;;;;;;;;;5033662;28;20028;-66
2022/12/25 10:41:18;;;;;;;2.75;1.50;;;;;;;;;;5017595;28;20055;-66
2022/12/25 10:43:54;;;;;;;5.25;1.77;;;;;;;;;;5030042;28;20029;-66
2022/12/25 10:46:22;;;;;;;4.95;2.00;;;;;;;;;;5027575;28;20037;-66
2022/12/25 10:48:56;;;;;;;4.80;2.00;;;;;;;;;;5031648;28;20026;-66
2022/12/25 10:51:36;;;;;;;8.90;3.13;;;;;;;;;;5027906;28;20091;-66
2022/12/25 10:54:03;;;;;;;6.88;3.17;;;;;;;;;;5028367;28;20033;-66
2022/12/25 10:56:30;;;;;;;5.22;1.58;;;;;;;;;;5031737;28;20029;-66
2022/12/25 10:59:10;;;;;;;3.47;2.58;;;;;;;;;;5028134;28;20517;-66
2022/12/25 11:01:36;;;;;;;8.77;4.47;;;;;;;;;;5027785;28;20048;-66
2022/12/25 11:04:02;;;;;;;6.75;4.60;;;;;;;;;;5032856;28;20477;-66
2022/12/25 11:06:30;;;;;;;9.10;3.75;;;;;;;;;;5029798;28;20119;-66
2022/12/25 11:08:57;;;;;;;9.75;4.57;;;;;;;;;;5029767;28;20030;-66
2022/12/25 11:11:24;;;;;;;7.75;3.50;;;;;;;;;;5029386;28;20052;-66
2022/12/25 11:13:52;;;;;;;10.82;3.70;;;;;;;;;;5026546;28;20555;-66
2022/12/25 11:16:26;;;;;;;8.13;3.53;;;;;;;;;;5029408;28;20025;-66
2022/12/25 11:18:53;;;;;;;5.60;1.98;;;;;;;;;;5031454;28;20017;-67
2022/12/25 11:21:26;;;;;;;5.65;1.60;;;;;;;;;;5027395;28;20104;-67
2022/12/25 11:23:59;;;;;;;4.20;2.15;;;;;;;;;;5028877;28;20494;-67
2022/12/25 11:26:26;;;;;;;3.78;1.75;;;;;;;;;;5021020;28;20026;-67
2022/12/25 11:28:54;;;;;;;2.00;1.60;;;;;;;;;;5020316;28;20448;-67
2022/12/25 11:31:22;;;;;;;4.32;1.50;;;;;;;;;;5025963;28;20040;-67
2022/12/25 11:33:48;;;;;;;4.32;1.58;;;;;;;;;;5027218;28;20069;-67
2022/12/25 11:36:28;;;;;;;4.05;2.00;;;;;;;;;;5024089;28;20042;-67
2022/12/25 11:38:54;;;;;;;4.40;2.00;;;;;;;;;;5025003;28;20459;-67
2022/12/25 11:41:22;;;;;;;4.97;2.50;;;;;;;;;;5018308;28;20030;-67
2022/12/25 11:43:52;;;;;;;4.85;2.42;;;;;;;;;;5024018;28;20022;-67
2022/12/25 11:46:21;;;;;;;7.20;2.40;;;;;;;;;;5024243;28;20026;-67
2022/12/25 11:48:54;;;;;;;2.45;1.35;;;;;;;;;;5025861;28;20121;-67
2022/12/25 11:51:21;;;;;;;2.75;1.90;;;;;;;;;;5023098;28;20029;-67
2022/12/25 11:53:50;;;;;;;4.07;1.88;;;;;;;;;;5029153;28;20025;-67
2022/12/25 11:56:24;;;;;;;7.30;3.10;;;;;;;;;;5023956;28;20402;-67
2022/12/25 11:58:50;;;;;;;6.05;3.00;;;;;;;;;;5032820;28;20021;-67
2022/12/25 12:01:21;;;;;;;6.40;2.50;;;;;;;;;;5033679;28;20024;-67
2022/12/25 12:03:47;;;;;;;4.82;2.38;;;;;;;;;;5032437;28;20021;-67
2022/12/25 12:06:13;;;;;;;7.55;4.28;;;;;;;;;;5033193;28;20104;-67
2022/12/25 12:08:39;;;;;;;6.47;3.58;;;;;;;;;;5032498;28;20031;-67
2022/12/25 12:11:14;;;;;;;5.25;2.67;;;;;;;;;;5033274;28;20035;-67
2022/12/25 12:13:59;;;;;;;4.50;1.90;;;;;;;;;;5031930;28;20021;-67
2022/12/25 12:16:25;;;;;;;5.70;1.52;;;;;;;;;;5019599;28;20030;-67
2022/12/25 12:18:51;;;;;;;5.43;2.80;;;;;;;;;;5021567;28;20021;-67
2022/12/25 12:21:17;;;;;;;7.88;4.57;;;;;;;;;;5018608;28;20442;-67
2022/12/25 12:23:56;;;;;;;5.82;3.78;;;;;;;;;;5022937;28;20025;-67
2022/12/25 12:26:27;;;;;;;6.82;2.60;;;;;;;;;;5024015;28;20037;-67
2022/12/25 12:28:54;;;;;;;3.35;1.98;;;;;;;;;;5023815;28;20033;-67
2022/12/25 12:31:21;;;;;;;2.35;1.88;;;;;;;;;;5025091;28;20049;-67
2022/12/25 12:33:58;;;;;;;4.85;1.95;;;;;;;;;;5024196;28;20041;-67
2022/12/25 12:36:25;;;;;;;3.67;1.83;;;;;;;;;;5020158;28;20030;-67
2022/12/25 12:38:52;;;;;;;5.05;1.27;;;;;;;;;;5018696;28;20100;-67
2022/12/25 12:41:21;;;;;;;4.10;1.77;;;;;;;;;;5022266;28;20048;-67
2022/12/25 12:43:57;;;;;;;6.50;3.38;;;;;;;;;;5021302;28;20029;-67
2022/12/25 12:46:25;;;;;;;10.30;5.22;;;;;;;;;;5021391;28;20116;-67
2022/12/25 12:48:52;;;;;;;12.68;4.90;;;;;;;;;;5023592;28;20046;-67
2022/12/25 12:51:28;;;;;;;6.85;3.63;;;;;;;;;;5015099;28;20025;-67
2022/12/25 12:54:23;;;;;;;6.18;2.72;;;;;;;;;;5029450;28;20029;-67
2022/12/25 12:56:58;;;;;;;3.88;1.88;;;;;;;;;;5028691;28;20056;-67
2022/12/25 12:59:25;;;;;;;6.20;2.65;;;;;;;;;;5028647;28;20524;-67
2022/12/25 13:01:59;;;;;;;9.10;3.53;;;;;;;;;;5029692;28;20044;-67
2022/12/25 13:04:28;;;;;;;4.60;2.08;;;;;;;;;;5024038;28;20060;-67
2022/12/25 13:07:04;;;;;;;5.70;1.65;;;;;;;;;;5027576;28;20044;-67
2022/12/25 13:09:54;;;;;;;7.80;2.97;;;;;;;;;;5031280;28;20033;-67
2022/12/25 13:12:21;;;;;;;5.57;2.15;;;;;;;;;;5028070;28;20111;-67
2022/12/25 13:14:48;;;;;;;5.80;2.53;;;;;;;;;;5031161;28;20080;-67
2022/12/25 13:17:17;;;;;;;8.65;2.30;;;;;;;;;;5022757;28;20112;-67
2022/12/25 13:19:44;;;;;;;4.65;2.10;;;;;;;;;;5022595;28;20516;-67
2022/12/25 13:22:23;;;;;;;3.88;1.35;;;;;;;;;;5024925;28;20068;-67
2022/12/25 13:24:54;;;;;;;4.43;1.77;;;;;;;;;;5022631;28;20060;-67
2022/12/25 13:27:22;;;;;;;4.05;1.60;;;;;;;;;;5022638;28;20034;-67
2022/12/25 13:29:48;;;;;;;4.97;2.00;;;;;;;;;;5026041;28;20076;-67
2022/12/25 13:32:18;;;;;;;3.55;1.92;;;;;;;;;;5033166;28;20029;-67
2022/12/25 13:34:44;;;;;;;4.63;2.10;;;;;;;;;;5031891;28;20466;-67
2022/12/25 13:37:15;;;;;;;2.50;1.83;;;;;;;;;;5026659;28;20030;-67
2022/12/25 13:39:50;;;;;;;5.25;1.80;;;;;;;;;;5024266;28;20039;-66
2022/12/25 13:42:17;;;;;;;5.32;2.28;;;;;;;;;;5026226;28;20116;-66
2022/12/25 13:44:47;;;;;;;4.22;2.20;;;;;;;;;;5032385;28;20055;-66
2022/12/25 13:47:21;;;;;;;9.23;2.15;;;;;;;;;;5031789;28;20116;-66
2022/12/25 13:49:48;;;;;;;3.95;1.90;;;;;;;;;;5031940;28;20032;-66
2022/12/25 13:52:16;;;;;;;4.55;2.05;;;;;;;;;;5032576;28;20017;-66
2022/12/25 13:54:59;;;;;;;4.40;1.88;;;;;;;;;;5024097;28;20492;-66
2022/12/25 13:57:25;;;;;;;;;;;;;;;;;;5031820;28;20144;-66
2022/12/25 13:59:51;;;;;;;3.45;1.80;;;;;;;;;;5031239;28;19905;-66
2022/12/25 14:02:19;;;;;;;3.88;1.88;;;;;;;;;;5032131;28;20029;-66
2022/12/25 14:04:46;;;;;;;3.60;1.98;;;;;;;;;;5031079;28;20112;-66
2022/12/25 14:07:12;;;;;;;4.95;2.15;;;;;;;;;;5030676;28;20029;-66
2022/12/25 14:09:39;;;;;;;3.00;1.80;;;;;;;;;;5030408;28;20017;-66
2022/12/25 14:12:06;;;;;;;4.60;1.55;;;;;;;;;;5029119;28;20029;-66
2022/12/25 14:14:32;;;;;;;1.92;1.60;;;;;;;;;;5030346;28;20025;-66
2022/12/25 14:16:58;;;;;;;2.70;1.40;;;;;;;;;;5028822;28;20398;-66
2022/12/25 14:19:29;;;;;;;3.58;1.50;;;;;;;;;;5030086;28;20021;-66
2022/12/25 14:21:58;;;;;;;2.30;1.60;;;;;;;;;;5031218;28;20042;-66
2022/12/25 14:24:26;;;;;;;3.35;1.00;;;;;;;;;;5031126;28;20022;-66
2022/12/25 14:26:59;;;;;;;2.53;1.15;;;;;;;;;;5031086;28;20033;-66
2022/12/25 14:29:25;;;;;;;3.88;1.60;;;;;;;;;;5031514;28;20411;-66
2022/12/25 14:31:52;;;;;;;3.10;1.10;;;;;;;;;;5031056;28;20025;-66
2022/12/25 14:34:20;;;;;;;5.47;1.40;;;;;;;;;;5028797;28;20091;-66
2022/12/25 14:36:46;;;;;;;5.53;1.48;;;;;;;;;;5022629;28;20041;-66
2022/12/25 14:39:27;;;;;;;5.53;1.63;;;;;;;;;;5030788;28;20513;-66
2022/12/25 14:41:53;;;;;;;2.40;1.60;;;;;;;;;;5030239;28;20036;-66
2022/12/25 14:44:39;;;;;;;4.85;2.10;;;;;;;;;;5030783;28;20477;-66
2022/12/25 14:47:12;;;;;;;4.43;1.45;;;;;;;;;;5021442;28;20026;-66
2022/12/25 14:49:38;;;;;;;5.72;2.35;;;;;;;;;;5027619;28;20072;-66
2022/12/25 14:52:16;;;;;;;5.63;1.92;;;;;;;;;;5019688;28;20047;-66
2022/12/25 14:54:46;;;;;;;3.42;2.10;;;;;;;;;;5017396;28;20088;-66
2022/12/25 14:57:23;;;;;;;8.82;3.63;;;;;;;;;;5023687;28;20043;-66
2022/12/25 15:00:00;;;;;;;5.45;3.42;;;;;;;;;;5024834;28;20036;-66
2022/12/25 15:02:26;;;;;;;5.32;1.92;;;;;;;;;;5029440;28;20106;-66
2022/12/25 15:04:52;;;;;;;4.95;1.80;;;;;;;;;;5030414;28;20485;-66
2022/12/25 15:07:26;;;;;;;3.13;1.40;;;;;;;;;;5030294;28;20029;-66
2022/12/25 15:09:52;;;;;;;6.53;1.58;;;;;;;;;;5030019;28;20128;-66
2022/12/25 15:12:18;;;;;;;4.60;1.67;;;;;;;;;;5027460;28;20520;-66
2022/12/25 15:14:44;;;;;;;2.72;1.90;;;;;;;;;;5030243;28;20029;-66
2022/12/25 15:17:14;;;;;;;4.13;1.73;;;;;;;;;;5029696;28;20053;-66
2022/12/25 15:19:41;;;;;;;6.30;2.03;;;;;;;;;;5028686;28;20061;-66
2022/12/25 15:22:09;;;;;;;4.85;1.60;;;;;;;;;;5023551;28;20211;-66
2022/12/25 15:24:35;;;;;;;8.65;1.90;;;;;;;;;;5030185;28;20112;-66
2022/12/25 15:27:01;;;;;;;3.72;1.92;;;;;;;;;;5027699;28;20481;-66
2022/12/25 15:29:27;;;;;;;7.43;3.95;;;;;;;;;;5029087;28;20026;-66
2022/12/25 15:31:53;;;;;;;7.10;2.75;;;;;;;;;;5029120;28;20048;-66
2022/12/25 15:34:20;;;;;;;6.55;1.80;;;;;;;;;;5025204;28;20037;-66
2022/12/25 15:36:52;;;;;;;5.95;1.98;;;;;;;;;;5019951;28;20026;-66
2022/12/25 15:39:18;;;;;;;4.70;1.67;;;;;;;;;;5030318;28;20029;-66
2022/12/25 15:44:29;;;;;;;6.10;1.67;;;;;;;;;;5021725;28;20033;-66
2022/12/25 15:46:56;;;;;;;3.88;2.45;;;;;;;;;;5034371;28;20083;-67
2022/12/25 15:49:22;;;;;;;2.22;1.45;;;;;;;;;;5033682;28;20065;-67
2022/12/25 15:51:48;;;;;;;3.97;1.30;;;;;;;;;;5033446;28;20048;-67
2022/12/25 15:54:14;;;;;;;4.70;1.63;;;;;;;;;;5029653;28;20025;-67
2022/12/25 15:56:42;;;;;;;3.75;1.88;;;;;;;;;;5024188;28;20046;-66
2022/12/25 15:59:10;;;;;;;6.80;1.90;;;;;;;;;;5020116;28;20045;-66
2022/12/25 16:01:37;;;;;;;6.68;2.25;;;;;;;;;;5024243;28;20021;-66
2022/12/25 16:04:03;;;;;;;7.13;2.47;;;;;;;;;;5029812;28;20056;-66
2022/12/25 16:06:29;;;;;;;9.15;5.47;;;;;;;;;;5024239;28;20037;-66
2022/12/25 16:08:55;;;;;;;10.60;2.90;;;;;;;;;;5027162;28;20021;-66
2022/12/25 16:11:21;;;;;;;5.88;2.20;;;;;;;;;;5024510;28;20018;-66
2022/12/25 16:13:47;;;;;;;6.75;2.33;;;;;;;;;;5024418;28;20123;-66
2022/12/25 16:16:13;;;;;;;6.15;2.28;;;;;;;;;;5020946;28;20112;-66
2022/12/25 16:18:39;;;;;;;12.05;3.20;;;;;;;;;;5023938;28;20033;-66
2022/12/25 16:21:11;;;;;;;8.52;2.90;;;;;;;;;;5020172;28;20017;-66
2022/12/25 16:23:37;;;;;;;13.35;3.90;;;;;;;;;;5028777;28;20113;-66
2022/12/25 16:26:03;;;;;;;8.38;2.83;;;;;;;;;;5019641;28;20120;-66
2022/12/25 16:28:30;;;;;;;7.13;2.20;;;;;;;;;;5032393;28;20389;-66
2022/12/25 16:30:56;;;;;;;5.80;2.22;;;;;;;;;;5030609;28;20049;-66
2022/12/25 16:33:22;;;;;;;5.05;1.90;;;;;;;;;;5031672;28;20069;-66